Latest Weather Observations for Mawson*

IDT60801

Issued at 5:35 pm EST Wednesday 23 April 2014 (issued every 30 minutes, with the page automatically refreshed every 10 minutes)

About weather observations | Map of weather stations | Latest weather observations for ANT | Other Formats
Station Details ID: 300001 Name: MAWSON Lat: -67.60 Lon: 62.88 Height: 9.9 m
Data from the previous 72 hours. | See also: Recent months at Mawson*
Date/Time
EST
Temp
°C
App
Temp
°C
Dew
Point
Rel
Hum
%
Delta-T
°C
Wind Press
QNH
hPa
Press
MSL
hPa
Rain
since 9 am
mm
Dir
 
Spd
km/h
Gust
km/h
Spd
kts
Gust
kts
23/05:30pm -18.2 -29.0 -26.2 49 - SSE 37 43 20 23 1002.9 - -
23/05:00pm -18.4 -30.0 -26.7 48 - S 41 48 22 26 1002.8 - -
23/04:30pm -18.1 -29.7 -26.2 49 - SSE 41 46 22 25 1002.9 - -
23/04:00pm -18.7 -30.3 -26.3 51 - S 41 46 22 25 1002.7 1002.9 -
23/03:30pm -17.5 -27.3 -26.5 45 - SSE 32 37 17 20 1002.7 - -
23/03:00pm -17.7 -26.4 -26.2 47 - SSE 26 32 14 17 1002.9 - -
23/02:30pm -18.0 -22.9 -26.1 49 - ESE 6 7 3 4 1002.9 - -
23/02:00pm -19.3 -28.4 -26.4 53 - SSE 28 33 15 18 1002.7 - -
23/01:30pm -18.7 -26.3 -26.7 49 - SSE 20 24 11 13 1002.6 - -
23/01:00pm -18.1 -23.2 -25.5 52 - E 7 11 4 6 1002.6 1002.8 -
23/12:30pm -18.2 -23.3 -25.2 54 - WNW 7 9 4 5 1002.8 - -
23/12:00pm -17.9 -24.5 -25.5 51 - E 15 24 8 13 1002.8 - -
23/11:30am -17.5 -23.0 -26.3 46 - NNW 9 15 5 8 1002.8 - -
23/11:00am -17.7 -26.4 -26.5 46 - SSE 26 33 14 18 1002.2 - -
23/10:30am -18.8 -28.6 -26.4 51 - S 32 46 17 25 1002.3 - -
23/10:00am -16.5 -26.0 -26.6 41 - S 30 43 16 23 1002.4 1002.6 -
23/09:30am -18.2 -31.5 -26.0 50 - S 50 56 27 30 1001.9 - -
23/09:00am -18.2 -31.1 -25.6 52 - SSE 48 61 26 33 1001.7 - -
23/08:30am -17.5 -30.8 -26.1 47 - SSE 50 57 27 31 1001.5 - -
23/08:00am -17.3 -31.7 -26.3 45 - SSE 56 65 30 35 1001.1 - -
23/07:30am -17.4 -32.0 -26.2 46 - SSE 57 65 31 35 1001.4 - -
23/07:00am -17.0 -31.0 -26.1 45 - SSE 54 61 29 33 1001.1 1001.3 -
23/06:30am -17.7 -31.7 -25.6 50 - SSE 54 65 29 35 1000.9 - -
23/06:00am -18.0 -33.7 -25.4 52 - SSE 63 72 34 39 1000.9 - -
23/05:30am -17.7 -32.7 -25.8 49 - SSE 59 69 32 37 1000.2 - -
23/05:00am -17.2 -31.6 -25.3 49 - SSE 56 61 30 33 999.9 - -
23/04:30am -17.0 -31.4 -25.6 47 - SSE 56 63 30 34 1000.0 - -
23/04:00am -16.2 -29.8 -25.3 45 - SSE 52 61 28 33 999.9 1000.1 -
23/03:30am -16.1 -30.1 -25.2 45 - SSE 54 67 29 36 999.9 - -
23/03:00am -15.7 -29.7 -25.1 44 - SSE 54 61 29 33 999.7 - -
23/02:30am -15.3 -29.7 -24.8 44 - SSE 56 61 30 33 999.5 - -
23/02:00am -15.3 -28.5 -24.5 45 - SSE 50 61 27 33 999.8 - -
23/01:30am -15.3 -28.1 -23.8 48 - SSE 48 61 26 33 999.4 - -
23/01:00am -15.0 -28.2 -22.8 51 - SSE 50 67 27 36 999.3 999.5 -
23/12:30am -14.6 -28.6 -23.6 46 - SE 54 63 29 34 999.0 - -
23/12:00am -12.4 -27.3 -23.7 38 - SE 59 70 32 38 998.5 - -
 
Date/Time
EST
Temp
°C
App
Temp
°C
Dew
Point
Rel
Hum
%
Delta-T
°C
Wind Press
QNH
hPa
Press
MSL
hPa
Rain
since 9 am
mm
Dir
 
Spd
km/h
Gust
km/h
Spd
kts
Gust
kts
22/11:30pm -13.9 -27.8 -21.8 51 - SE 54 65 29 35 998.4 - -
22/11:26pm -13.2 -27.1 -21.6 49 - SE 54 65 29 35 998.4 - -
22/11:18pm -14.6 -28.6 -23.6 46 - S 54 61 29 33 998.3 - -
22/11:00pm -14.1 -28.0 -22.7 48 - SE 54 65 29 35 998.1 - -
22/10:30pm -12.3 -26.8 -24.3 36 - SE 57 70 31 38 997.8 - -
22/10:00pm -13.5 -29.2 -23.1 44 - SE 63 74 34 40 997.3 997.5 -
22/09:30pm -13.3 -28.6 -23.7 41 - SE 61 70 33 38 997.2 - -
22/09:00pm -14.5 -30.5 -23.3 47 - SE 65 74 35 40 996.7 - -
22/08:30pm -14.5 -30.5 -23.0 48 - SE 65 76 35 41 996.5 - -
22/08:00pm -14.4 -30.0 -22.7 49 - SE 63 76 34 41 996.4 - -
22/07:30pm -13.7 -28.9 -21.8 50 - SE 61 74 33 40 996.2 - -
22/07:00pm -13.3 -28.9 -22.7 45 - SE 63 72 34 39 995.8 996.0 -
22/06:30pm -13.3 -29.3 -21.3 51 - SE 65 74 35 40 995.7 - -
22/06:00pm -14.9 -30.9 -21.3 58 - SE 65 80 35 43 995.4 - -
22/05:30pm -12.9 -28.5 -22.8 43 - SE 63 74 34 40 995.0 - -
22/05:00pm -13.0 -29.0 -21.9 47 - SE 65 78 35 42 994.2 - -
22/04:30pm -12.7 -28.3 -21.9 46 - SE 63 76 34 41 994.4 - -
22/04:00pm -13.5 -30.4 -20.2 57 - SE 70 83 38 45 993.6 993.8 -
22/03:30pm -13.9 -30.8 -20.5 57 - SE 70 82 38 44 993.0 - -
22/03:00pm -14.0 -30.4 -22.1 50 - SE 67 80 36 43 993.0 - -
22/02:30pm -14.4 -29.6 -20.6 59 - SE 61 72 33 39 992.9 - -
22/02:00pm -14.6 -30.6 -21.2 57 - SE 65 76 35 41 992.7 - -
22/01:43pm -15.1 -29.5 -20.5 63 - SE 57 76 31 41 992.5 - -
22/01:30pm -14.8 -29.3 -21.4 57 - SE 57 70 31 38 992.6 - -
22/01:00pm -14.5 -29.7 -20.7 59 - SE 61 72 33 39 992.1 992.3 -
22/12:43pm -15.0 -30.2 -19.7 67 - SE 61 80 33 43 991.6 - -
22/12:30pm -14.9 -30.5 -20.7 61 - SE 63 80 34 43 991.7 - -
22/12:00pm -14.9 -30.8 -19.8 66 - SE 65 83 35 45 990.9 - -
22/11:32am -14.1 -31.0 -20.3 59 - SE 70 89 38 48 990.4 - -
22/11:30am -14.4 -31.7 -20.4 60 - SE 72 89 39 48 990.0 - -
22/11:08am -13.8 -31.1 -19.9 60 - SE 72 91 39 49 990.0 - -
22/11:00am -14.7 -32.0 -19.6 66 - SE 72 85 39 46 989.9 - -
22/10:45am -14.6 -31.9 -19.9 64 - SE 72 91 39 49 989.6 - -
22/10:30am -14.6 -32.2 -20.1 63 - SE 74 89 40 48 989.8 - -
22/10:00am -15.5 -33.1 -19.7 70 - SE 74 93 40 50 988.6 988.8 -
22/09:38am -14.9 -32.9 -20.2 64 - SE 76 95 41 51 988.2 - -
22/09:30am -14.5 -31.8 -19.6 65 - SE 72 87 39 47 988.0 - -
22/09:00am -14.8 -32.0 -19.2 69 - SE 72 91 39 49 988.6 - -
22/08:48am -14.6 -31.8 -18.8 70 - SE 72 93 39 50 987.9 - -
22/08:30am -14.8 -32.4 -19.5 67 - SE 74 87 40 47 987.9 - -
22/08:00am -14.7 -30.6 -18.9 70 - SE 65 82 35 44 988.1 - -
22/07:30am -14.9 -30.8 -19.3 69 - SE 65 80 35 43 988.0 - -
22/07:01am -14.9 -31.2 -19.1 70 - SE 67 87 36 47 987.2 - -
22/07:00am -15.2 -31.5 -19.2 71 - SE 67 83 36 45 987.5 987.7 -
22/06:50am -14.9 -30.8 -19.0 71 - SE 65 83 35 45 987.4 - -
22/06:30am -14.8 -31.1 -18.9 71 - SE 67 80 36 43 987.1 - -
22/06:00am -14.9 -31.6 -19.0 71 - SE 69 87 37 47 986.6 - -
22/05:34am -14.5 -30.8 -18.9 69 - SE 67 85 36 46 986.1 - -
22/05:30am -14.9 -30.8 -19.0 71 - SE 65 78 35 42 986.0 - -
22/05:00am -14.1 -29.6 -19.0 66 - SE 63 82 34 44 986.6 - -
22/04:36am -14.5 -30.0 -19.1 68 - SE 63 82 34 44 986.4 - -
22/04:30am -14.5 -29.6 -18.9 69 - SE 61 78 33 42 986.1 - -
22/04:00am -14.6 -29.4 -19.9 64 - SE 59 78 32 42 986.8 987.0 -
22/03:30am -14.4 -28.8 -19.9 63 - SE 57 76 31 41 986.5 - -
22/03:27am -14.3 -28.7 -19.8 63 - SE 57 76 31 41 986.3 - -
22/03:00am -14.4 -28.8 -20.0 62 - SE 57 70 31 38 986.4 - -
22/02:30am -15.0 -29.4 -20.1 65 - SE 57 69 31 37 986.1 - -
22/02:00am -14.7 -29.1 -20.1 63 - SE 57 70 31 38 986.2 - -
22/01:30am -14.7 -29.5 -20.7 60 - SE 59 72 32 39 985.9 - -
22/01:00am -14.8 -31.5 -21.0 59 - SE 69 80 37 43 985.5 985.7 -
22/12:48am -14.8 -31.1 -20.1 64 - SE 67 87 36 47 985.5 - -
22/12:30am -14.4 -30.3 -20.0 62 - SE 65 80 35 43 985.2 - -
22/12:00am -13.9 -29.1 -20.7 56 - SE 61 74 33 40 985.2 - -
 
Date/Time
EST
Temp
°C
App
Temp
°C
Dew
Point
Rel
Hum
%
Delta-T
°C
Wind Press
QNH
hPa
Press
MSL
hPa
Rain
since 9 am
mm
Dir
 
Spd
km/h
Gust
km/h
Spd
kts
Gust
kts
21/11:30pm -14.2 -30.2 -21.0 56 - SE 65 74 35 40 984.9 - -
21/11:00pm -14.5 -30.1 -20.3 61 - SE 63 76 34 41 984.6 - -
21/10:30pm -14.5 -29.3 -20.5 60 - SE 59 70 32 38 984.3 - -
21/10:00pm -14.3 -29.5 -21.3 55 - SE 61 70 33 38 984.5 984.7 -
21/09:30pm -14.5 -28.7 -20.7 59 - SE 56 69 30 37 984.3 - -
21/09:00pm -14.4 -29.2 -21.2 56 - SE 59 69 32 37 984.3 - -
21/08:30pm -13.9 -27.8 -21.4 53 - SE 54 65 29 35 984.3 - -
21/08:00pm -14.1 -28.4 -21.8 52 - SE 56 65 30 35 984.4 - -
21/07:30pm -14.1 -28.0 -21.8 52 - SE 54 65 29 35 984.2 - -
21/07:16pm -14.1 -28.4 -21.6 53 - SE 56 59 30 32 984.5 - -
21/07:00pm -14.0 -24.7 -22.1 50 - ESE 37 54 20 29 984.8 985.0 -
21/06:41pm -14.2 -26.0 -21.7 53 - ESE 43 61 23 33 984.4 - -
21/06:30pm -14.1 -25.9 -21.8 52 - ESE 43 52 23 28 984.7 - -
21/06:15pm -14.4 -24.1 -21.8 53 - ESE 32 50 17 27 984.9 - -
21/06:00pm -14.5 -20.6 -22.1 52 - E 13 26 7 14 985.3 - -
21/05:30pm -15.1 -24.5 -22.3 54 - SE 30 35 16 19 985.6 - -
21/05:00pm -15.0 -25.3 -23.1 50 - SE 35 44 19 24 985.4 - -
21/04:30pm -15.2 -25.9 -23.5 49 - SE 37 46 20 25 985.0 - -
21/04:00pm -15.9 -25.7 -23.7 51 - SE 32 37 17 20 985.1 985.3 -
21/03:30pm -15.5 -27.4 -24.0 48 - SE 43 48 23 26 985.0 - -
21/03:00pm -16.0 -27.9 -23.8 51 - SE 43 48 23 26 984.9 - -
21/02:30pm -15.8 -28.2 -23.4 52 - SE 46 56 25 30 984.8 - -
21/02:00pm -16.6 -29.0 -23.5 55 - SE 46 54 25 29 984.6 - -
21/01:30pm -16.3 -28.7 -23.2 55 - SE 46 56 25 30 984.7 - -
21/01:00pm -15.6 -27.6 -22.8 54 - SE 44 50 24 27 984.6 984.8 -
21/12:30pm -15.3 -27.7 -22.7 53 - SE 46 50 25 27 984.7 - -
21/12:00pm -15.1 -27.9 -21.5 58 - SE 48 54 26 29 984.7 - -
21/11:30am -14.6 -27.0 -21.0 58 - SE 46 52 25 28 984.8 - -
21/11:00am -14.2 -26.6 -21.4 54 - SE 46 52 25 28 985.0 - -
21/10:30am -13.8 -25.8 -20.7 56 - SE 44 50 24 27 985.2 - -
21/10:00am -13.8 -25.8 -20.7 56 - SE 44 50 24 27 984.8 985.0 -
21/09:30am -13.6 -25.5 -20.1 58 - SE 44 54 24 29 985.1 - -
21/09:00am -13.8 -26.1 -19.7 61 - SE 46 52 25 28 984.9 - -
21/08:30am -13.5 -25.8 -20.4 56 - SE 46 52 25 28 985.1 - -
21/08:00am -13.7 -26.0 -20.4 57 - SE 46 50 25 27 985.6 - -
21/07:30am -13.8 -26.5 -20.2 58 - SE 48 54 26 29 985.4 - -
21/07:00am -13.8 -26.5 -20.2 58 - SE 48 54 26 29 985.7 985.9 -
21/06:30am -13.5 -26.2 -20.6 55 - SE 48 56 26 30 985.9 - -
21/06:00am -13.5 -26.2 -20.4 56 - SE 48 56 26 30 986.1 - -
21/05:30am -13.7 -26.4 -20.0 59 - SE 48 54 26 29 986.8 - -
21/05:00am -13.7 -26.4 -20.0 59 - SE 48 54 26 29 986.6 - -
21/04:30am -13.4 -25.3 -19.9 58 - SE 44 52 24 28 986.8 - -
21/04:00am -13.5 -25.4 -19.8 59 - SE 44 54 24 29 986.8 987.0 -
21/03:30am -13.6 -25.9 -19.9 59 - SE 46 54 25 29 986.9 - -
21/03:00am -13.6 -25.9 -20.1 58 - SE 46 54 25 29 987.0 - -
21/02:30am -14.0 -25.8 -20.0 60 - SE 43 46 23 25 987.4 - -
21/02:00am -13.9 -25.6 -19.8 61 - SE 43 50 23 27 988.2 - -
21/01:30am -14.1 -25.8 -19.2 65 - SE 43 50 23 27 988.4 - -
21/01:00am -14.1 -26.8 -20.1 60 - SE 48 56 26 30 988.5 988.7 -
21/12:30am -13.8 -26.1 -19.7 61 - SE 46 56 25 30 988.9 - -
21/12:00am -13.8 -26.1 -20.7 56 - SE 46 57 25 31 989.0 - -
 
Date/Time
EST
Temp
°C
App
Temp
°C
Dew
Point
Rel
Hum
%
Delta-T
°C
Wind Press
QNH
hPa
Press
MSL
hPa
Rain
since 9 am
mm
Dir
 
Spd
km/h
Gust
km/h
Spd
kts
Gust
kts
20/11:30pm -13.9 -26.3 -21.0 55 - SE 46 56 25 30 989.6 - -
20/11:00pm -13.0 -23.6 -20.8 52 - SE 37 48 20 26 990.1 - -
20/10:30pm -13.8 -26.1 -20.7 56 - SE 46 56 25 30 990.1 - -
20/10:00pm -13.7 -26.4 -20.8 55 - SE 48 56 26 30 990.2 990.4 -

Other Formats:

Comma delimited format used in spreadsheet applications
http://www.bom.gov.au/fwo/IDT60803/IDT60803.89564.axf

JavaScript Object Notation format (JSON) in row-major order
http://www.bom.gov.au/fwo/IDT60803/IDT60803.89564.json